Time;durP1;ratioP1;P1;durP2;ratioP2;P2;SDS_P1;SDS_P2;PMS_P1;PMS_P2;Temp;Humidity;BMP_temperature;BMP_pressure;BME280_temperature;BME280_humidity;BME280_pressure;Samples;Min_cycle;Max_cycle;Signal;HPM_P1;HPM_P2
2023/03/17 00:01:08;;;;;;;71.83;26.97;;;;;;;-147.16;71.22;78398.69;4275035;28;20455;-66
2023/03/17 00:03:37;;;;;;;69.00;25.03;;;;;;;-147.16;71.03;78388.56;4258684;28;20250;-66
2023/03/17 00:06:04;;;;;;;58.33;23.83;;;;;;;-147.16;71.21;78400.69;4252247;28;20309;-65
2023/03/17 00:08:33;;;;;;;63.73;24.87;;;;;;;-147.16;71.33;78408.81;4264303;28;20300;-65
2023/03/17 00:11:00;;;;;;;57.03;23.93;;;;;;;-147.16;71.58;78402.72;4261715;28;20684;-65
2023/03/17 00:13:27;;;;;;;61.93;24.43;;;;;;;-147.16;71.57;78406.78;4246125;28;20394;-65
2023/03/17 00:15:58;;;;;;;62.00;22.30;;;;;;;-147.16;71.42;78412.84;4258485;28;20325;-64
2023/03/17 00:18:25;;;;;;;65.57;24.27;;;;;;;-147.16;71.75;78414.88;4276557;28;20425;-66
2023/03/17 00:20:51;;;;;;;59.07;23.80;;;;;;;-147.16;71.64;78422.97;4264646;28;21639;-68
2023/03/17 00:23:20;;;;;;;57.97;23.50;;;;;;;-147.16;71.57;78420.97;4253301;28;20698;-64
2023/03/17 00:25:47;;;;;;;54.63;22.53;;;;;;;-147.16;71.50;78412.84;4261625;28;20257;-64
2023/03/17 00:28:23;;;;;;;59.37;23.57;;;;;;;-147.16;71.62;78422.97;4263410;28;21601;-47
2023/03/17 00:30:56;;;;;;;59.30;22.63;;;;;;;-147.16;71.51;78414.88;4268100;28;20239;-71
2023/03/17 00:33:25;;;;;;;61.03;24.17;;;;;;;-147.16;71.79;78412.84;4244988;28;20716;-72
2023/03/17 00:35:53;;;;;;;60.17;24.33;;;;;;;-147.16;71.59;78425.00;4269361;28;20322;-74
2023/03/17 00:38:20;;;;;;;56.57;23.20;;;;;;;-147.16;71.71;78431.09;4255225;28;20277;-72
2023/03/17 00:40:47;;;;;;;61.73;23.13;;;;;;;-147.16;71.72;78429.06;4266297;28;20626;-72
2023/03/17 00:43:14;;;;;;;55.43;23.00;;;;;;;-147.16;71.97;78425.00;4275221;28;20278;-72
2023/03/17 00:45:41;;;;;;;53.10;22.73;;;;;;;-147.16;71.82;78414.88;4269540;28;20242;-73
2023/03/17 00:48:13;;;;;;;54.33;22.27;;;;;;;-147.16;71.81;78404.75;4247768;28;26277;-76
2023/03/17 00:50:41;;;;;;;48.93;22.00;;;;;;;-147.16;71.85;78396.66;4265531;28;24882;-74
2023/03/17 00:53:14;;;;;;;66.53;24.17;;;;;;;-147.16;72.06;78404.75;4275005;28;20225;-73
2023/03/17 00:55:42;;;;;;;58.67;22.63;;;;;;;-147.16;72.04;78400.69;4258789;28;20529;-74
2023/03/17 00:58:13;;;;;;;61.37;24.60;;;;;;;-147.16;72.23;78420.97;4256477;28;20250;-74
2023/03/17 01:00:40;;;;;;;56.53;22.03;;;;;;;-147.16;72.30;78427.03;4265752;28;20227;-73
2023/03/17 01:03:10;;;;;;;61.00;24.73;;;;;;;-147.16;72.21;78418.94;4253063;28;21176;-72
2023/03/17 01:05:37;;;;;;;62.07;23.90;;;;;;;-147.16;72.33;78422.97;4266160;28;20243;-72
2023/03/17 01:08:04;;;;;;;55.50;23.70;;;;;;;-147.16;72.20;78420.97;4287157;28;20592;-75
2023/03/17 01:10:31;;;;;;;53.63;23.37;;;;;;;-147.16;72.09;78412.84;4257488;28;20571;-73
2023/03/17 01:12:58;;;;;;;54.87;22.90;;;;;;;-147.16;71.91;78406.78;4257785;28;21191;-73
2023/03/17 01:15:28;;;;;;;58.07;22.97;;;;;;;-147.16;71.75;78400.69;4253460;28;21897;-72
2023/03/17 06:04:06;;;;;;;51.80;18.70;;;;;;;-147.16;66.13;78435.13;4479528;28;22103;-64
2023/03/17 06:06:33;;;;;;;46.67;18.27;;;;;;;-147.16;65.78;78410.84;4262554;28;20640;-67
2023/03/17 06:09:00;;;;;;;42.33;17.53;;;;;;;-147.16;64.94;78382.47;4278119;28;20237;-68
2023/03/17 06:11:27;;;;;;;43.37;17.17;;;;;;;-147.16;64.68;78372.34;4288960;28;22695;-65
2023/03/17 06:13:53;;;;;;;41.03;16.47;;;;;;;-147.16;64.26;78366.28;4276751;28;20242;-65
2023/03/17 06:16:20;;;;;;;43.43;16.60;;;;;;;-147.16;63.65;78346.00;4273650;28;25451;-66
2023/03/17 06:18:47;;;;;;;32.77;15.27;;;;;;;-147.16;63.38;78331.84;4276328;28;22087;-67
2023/03/17 06:21:14;;;;;;;37.77;15.17;;;;;;;-147.16;63.58;78335.88;4281940;28;23287;-66
2023/03/17 06:23:41;;;;;;;34.83;15.10;;;;;;;-147.16;63.33;78341.97;4291741;28;21215;-68
2023/03/17 06:26:07;;;;;;;50.83;15.53;;;;;;;-147.16;63.54;78344.00;4262559;28;22937;-68
2023/03/17 06:28:34;;;;;;;40.53;15.23;;;;;;;-147.16;63.33;78348.03;4278162;28;20238;-65
2023/03/17 06:31:01;;;;;;;35.47;14.33;;;;;;;-147.16;63.32;78327.78;4271404;28;20243;-66
2023/03/17 06:33:31;;;;;;;38.67;14.63;;;;;;;-147.16;63.13;78311.59;4257428;28;20226;-66
2023/03/17 06:35:59;;;;;;;39.37;14.20;;;;;;;-147.16;62.01;78273.09;4253495;28;20741;-66
2023/03/17 06:38:26;;;;;;;43.13;15.07;;;;;;;-147.16;61.76;78277.16;4253004;28;20234;-64
2023/03/17 06:40:52;;;;;;;36.70;13.50;;;;;;;-147.16;61.10;78275.13;4271226;28;20922;-66
2023/03/17 06:43:21;;;;;;;34.53;13.73;;;;;;;-147.16;61.09;78295.38;4293015;28;20618;-66
2023/03/17 06:45:47;;;;;;;32.87;13.80;;;;;;;-147.16;61.51;78295.38;4286327;28;22932;-65
2023/03/17 06:48:14;;;;;;;33.43;12.90;;;;;;;-147.16;61.49;78301.47;4272160;28;21825;-64
2023/03/17 06:50:40;;;;;;;32.83;12.97;;;;;;;-147.16;61.31;78307.53;4265422;28;25664;-66
2023/03/17 06:53:07;;;;;;;36.40;13.57;;;;;;;-147.16;61.64;78299.44;4292949;28;20233;-68
2023/03/17 06:55:34;;;;;;;37.93;13.50;;;;;;;-147.16;61.68;78295.38;4280073;28;20306;-67
2023/03/17 06:58:01;;;;;;;33.23;14.43;;;;;;;-147.16;61.50;78279.19;4260682;28;20218;-66
2023/03/17 07:00:29;;;;;;;41.00;13.60;;;;;;;-147.16;61.36;78275.13;4277055;27;22156;-66
2023/03/17 07:02:56;;;;;;;31.97;12.77;;;;;;;-147.16;61.36;78265.00;4277524;28;20242;-67
2023/03/17 07:05:23;;;;;;;28.27;11.57;;;;;;;-147.16;60.97;78269.06;4265412;28;20325;-66
2023/03/17 07:07:49;;;;;;;26.87;11.53;;;;;;;-147.16;60.78;78250.81;4276768;28;21130;-68
2023/03/17 07:10:16;;;;;;;31.40;12.80;;;;;;;-147.16;60.85;78250.81;4258997;28;20239;-66
2023/03/17 07:12:44;;;;;;;32.50;13.10;;;;;;;-147.16;61.07;78230.56;4269706;28;26523;-67
2023/03/17 07:15:11;;;;;;;33.93;12.60;;;;;;;-147.16;61.34;78222.47;4284652;27;20647;-66
2023/03/17 07:17:38;;;;;;;34.17;14.37;;;;;;;-147.16;61.14;78194.13;4271975;28;20252;-67
2023/03/17 07:20:05;;;;;;;35.13;14.57;;;;;;;-147.16;60.26;78177.91;4275647;28;20416;-66
2023/03/17 07:22:32;;;;;;;34.50;14.20;;;;;;;-147.16;59.97;78165.75;4256152;28;20245;-65
2023/03/17 07:24:58;;;;;;;39.67;14.77;;;;;;;-147.16;60.09;78151.59;4288290;28;20233;-62
2023/03/17 07:27:25;;;;;;;39.37;14.70;;;;;;;-147.16;59.13;78127.28;4295543;27;20282;-64
2023/03/17 07:29:52;;;;;;;34.47;15.10;;;;;;;-147.16;59.02;78111.09;4312016;28;20807;-66
2023/03/17 07:32:19;;;;;;;37.90;15.67;;;;;;;-147.16;57.75;78044.25;4344637;28;20230;-67
2023/03/17 07:34:45;;;;;;;35.33;15.30;;;;;;;-147.16;55.72;77934.91;4288437;28;20239;-66
2023/03/17 07:37:12;;;;;;;36.47;14.67;;;;;;;-147.16;53.86;77791.09;4331112;28;20254;-66
2023/03/17 07:39:39;;;;;;;27.87;13.23;;;;;;;-147.16;44.34;77355.75;4337262;28;20794;-69
2023/03/17 07:42:07;;;;;;;31.03;13.37;;;;;;;-147.16;35.22;76920.41;4312148;28;20234;-67
2023/03/17 07:44:34;;;;;;;33.00;12.33;;;;;;;-147.16;30.63;76608.63;4376373;28;20228;-68
2023/03/17 07:47:05;;;;;;;32.17;11.77;;;;;;;-147.16;27.62;76422.41;4445993;28;20236;-69
2023/03/17 07:49:33;;;;;;;26.93;11.63;;;;;;;-147.16;27.58;76452.75;4440170;28;20494;-69
2023/03/17 07:52:09;;;;;;;28.83;11.40;;;;;;;-147.16;26.34;76276.63;4285320;28;20328;-68
2023/03/17 07:54:36;;;;;;;28.17;12.37;;;;;;;-147.16;26.69;76426.44;4288268;28;20314;-68
2023/03/17 07:57:03;;;;;;;34.17;13.43;;;;;;;-147.16;27.08;76387.97;4279934;28;22040;-70
2023/03/17 07:59:30;;;;;;;29.03;12.60;;;;;;;-147.16;25.71;76246.28;4307173;28;25211;-69
2023/03/17 08:01:58;;;;;;;32.70;12.17;;;;;;;-147.16;25.38;76228.06;4299318;28;20283;-72
2023/03/17 08:04:26;;;;;;;22.63;11.93;;;;;;;-147.16;24.89;76145.06;4285597;28;21173;-71
2023/03/17 08:06:53;;;;;;;34.93;12.10;;;;;;;-147.16;25.48;76311.06;4278022;28;21476;-73
2023/03/17 08:09:21;;;;;;;25.33;11.50;;;;;;;-147.16;26.51;76462.88;4267137;28;20242;-70
2023/03/17 08:11:48;;;;;;;26.27;11.77;;;;;;;-147.16;27.20;76470.97;4270860;28;20229;-61
2023/03/17 08:14:15;;;;;;;27.53;11.27;;;;;;;-147.16;25.76;76282.72;4262325;28;21636;-63
2023/03/17 08:16:41;;;;;;;28.10;11.67;;;;;;;-147.16;25.28;76266.53;4289887;28;22122;-65
2023/03/17 08:19:09;;;;;;;29.97;11.90;;;;;;;-147.16;24.88;76183.53;4287709;28;21449;-65
2023/03/17 08:21:36;;;;;;;29.57;11.53;;;;;;;-147.16;24.02;76043.84;4261950;28;20365;-62
2023/03/17 08:24:04;;;;;;;23.60;10.90;;;;;;;-147.16;24.04;76070.16;4317037;28;20230;-64
2023/03/17 08:26:32;;;;;;;22.23;9.73;;;;;;;-147.16;23.09;75989.19;4293607;28;20268;-68
2023/03/17 08:29:00;;;;;;;26.07;9.87;;;;;;;-147.16;24.01;76181.50;4328507;28;20246;-69
2023/03/17 08:31:27;;;;;;;21.17;9.20;;;;;;;-147.16;25.58;76383.94;4327404;28;20238;-67
2023/03/17 08:33:57;;;;;;;22.53;9.63;;;;;;;-147.16;27.03;76606.63;4396901;28;21613;-64
2023/03/17 08:36:24;;;;;;;16.73;7.67;;;;;;;-147.16;28.44;76857.66;4343553;28;21101;-63
2023/03/17 08:38:51;;;;;;;22.67;9.63;;;;;;;-147.16;30.67;77007.47;4326695;28;20230;-65
2023/03/17 08:41:21;;;;;;;16.77;6.97;;;;;;;-147.16;32.26;77286.91;4307617;28;20347;-65
2023/03/17 08:43:49;;;;;;;14.13;6.33;;;;;;;-147.16;33.73;77400.28;4306997;28;20285;-63
2023/03/17 08:46:25;;;;;;;14.47;6.40;;;;;;;-147.16;34.06;77454.97;4315173;28;21213;-66
2023/03/17 08:48:55;;;;;;;13.10;5.70;;;;;;;-147.16;33.93;77371.94;4273989;28;20252;-65
2023/03/17 08:51:24;;;;;;;14.13;5.77;;;;;;;-147.16;32.88;77345.63;4293503;28;25806;-66
2023/03/17 08:53:52;;;;;;;11.70;5.27;;;;;;;-147.16;33.96;77434.72;4274661;28;20234;-67
2023/03/17 08:56:18;;;;;;;15.97;5.13;;;;;;;-147.16;34.23;77477.25;4275991;28;20289;-66
2023/03/17 08:58:47;;;;;;;14.53;5.23;;;;;;;-147.16;34.70;77501.53;4269328;28;20282;-66
2023/03/17 09:01:14;;;;;;;10.90;5.60;;;;;;;-147.16;34.80;77491.41;4314691;28;20273;-66
2023/03/17 09:03:41;;;;;;;14.53;5.60;;;;;;;-147.16;34.68;77501.53;4287327;28;20241;-68
2023/03/17 09:06:11;;;;;;;14.07;5.40;;;;;;;-147.16;34.93;77501.53;4335296;28;20246;-67
2023/03/17 09:08:43;;;;;;;12.00;4.87;;;;;;;-147.16;34.40;77446.88;4304350;28;20244;-69
2023/03/17 09:11:13;;;;;;;15.63;5.10;;;;;;;-147.16;33.62;77420.53;4305626;28;20243;-66
2023/03/17 09:13:40;;;;;;;10.23;4.23;;;;;;;-147.16;33.67;77465.09;4312792;28;20309;-70
2023/03/17 09:16:07;;;;;;;10.37;4.27;;;;;;;-147.16;33.75;77479.25;4291382;28;20245;-66
2023/03/17 09:18:34;;;;;;;12.87;4.20;;;;;;;-147.16;34.92;77564.31;4289202;28;21746;-66
2023/03/17 09:21:02;;;;;;;17.60;4.30;;;;;;;-147.16;34.96;77525.84;4279619;28;20543;-67
2023/03/17 09:23:29;;;;;;;13.40;4.63;;;;;;;-147.16;34.37;77461.03;4289314;28;20356;-66
2023/03/17 09:25:56;;;;;;;12.70;4.57;;;;;;;-147.16;34.33;77475.22;4281416;28;21650;-64
2023/03/17 09:28:23;;;;;;;13.90;5.23;;;;;;;-147.16;34.51;77461.03;4279567;28;21111;-66
2023/03/17 09:30:50;;;;;;;14.83;4.27;;;;;;;-147.16;34.68;77481.28;4323430;28;20227;-65
2023/03/17 09:33:17;;;;;;;12.20;4.00;;;;;;;-147.16;34.86;77487.34;4317143;28;20358;-66
2023/03/17 09:35:44;;;;;;;11.87;3.90;;;;;;;-147.16;34.24;77436.75;4257983;28;22342;-65
2023/03/17 09:38:11;;;;;;;13.90;4.30;;;;;;;-147.16;33.88;77438.75;4302665;28;20230;-65
2023/03/17 09:40:50;;;;;;;12.70;4.03;;;;;;;-147.16;34.25;77410.41;4290883;28;20230;-66
2023/03/17 09:43:27;;;;;;;10.10;4.23;;;;;;;-147.16;33.60;77392.19;4317436;28;20360;-66
2023/03/17 09:45:54;;;;;;;12.57;3.70;;;;;;;-147.16;33.14;77396.25;4316754;28;20234;-65
2023/03/17 09:48:24;;;;;;;10.43;3.37;;;;;;;-147.16;33.33;77420.53;4276772;28;21831;-69
2023/03/17 09:50:54;;;;;;;10.87;3.80;;;;;;;-147.16;33.66;77467.13;4269235;28;20245;-64
2023/03/17 09:53:27;;;;;;;10.67;3.30;;;;;;;-147.16;33.91;77471.16;4266907;28;20414;-65
2023/03/17 09:55:57;;;;;;;8.97;3.33;;;;;;;-147.16;33.36;77465.09;4270028;28;20229;-65
2023/03/17 09:58:30;;;;;;;9.83;3.13;;;;;;;-147.16;33.56;77471.16;4320838;28;20475;-65
2023/03/17 10:00:57;;;;;;;8.30;3.40;;;;;;;-147.16;33.45;77485.34;4274239;28;20238;-64
2023/03/17 10:03:24;;;;;;;12.20;3.80;;;;;;;-147.16;33.92;77479.25;4267905;28;20237;-67
2023/03/17 10:05:51;;;;;;;8.70;3.77;;;;;;;-147.16;33.82;77454.97;4268760;28;21107;-67
2023/03/17 10:08:24;;;;;;;12.77;3.57;;;;;;;-147.16;34.15;77442.81;4282221;28;21747;-65
2023/03/17 10:10:57;;;;;;;8.67;3.70;;;;;;;-147.16;33.48;77434.72;4269542;28;20714;-61
2023/03/17 10:13:45;;;;;;;13.77;3.40;;;;;;;-147.16;33.65;77412.44;4267546;28;21216;-62
2023/03/17 10:16:17;;;;;;;12.30;3.63;;;;;;;-147.16;33.46;77430.66;4286429;28;21191;-65
2023/03/17 10:18:50;;;;;;;9.90;3.50;;;;;;;-147.16;33.12;77430.66;4287293;28;20486;-68
2023/03/17 10:21:23;;;;;;;9.53;3.10;;;;;;;-147.16;33.19;77408.38;4296526;28;20254;-71
2023/03/17 10:23:50;;;;;;;11.20;4.30;;;;;;;-147.16;33.33;77392.19;4339987;28;20235;-65
2023/03/17 10:26:38;;;;;;;12.20;4.20;;;;;;;-147.16;33.21;77367.91;4280714;28;20507;-68
2023/03/17 10:29:16;;;;;;;10.67;4.17;;;;;;;-147.16;32.64;77355.75;4330372;28;21022;-65
2023/03/17 10:31:43;;;;;;;18.40;4.40;;;;;;;-147.16;33.19;77349.66;4277945;28;21154;-65
2023/03/17 10:34:19;;;;;;;15.57;4.20;;;;;;;-147.16;32.94;77357.78;4262951;28;22432;-65
2023/03/17 10:36:52;;;;;;;11.90;4.13;;;;;;;-147.16;32.96;77345.63;4274996;28;20225;-64
2023/03/17 10:39:21;;;;;;;14.03;4.03;;;;;;;-147.16;33.29;77349.66;4272653;28;22916;-63
2023/03/17 10:41:59;;;;;;;10.53;4.27;;;;;;;-147.16;33.01;77363.84;4289931;28;21841;-65
2023/03/17 10:44:55;;;;;;;10.53;3.97;;;;;;;-147.16;33.89;77420.53;4264362;28;22375;-62
2023/03/17 10:47:37;;;;;;;12.37;4.03;;;;;;;-147.16;34.25;77398.25;4271381;28;20241;-65
2023/03/17 10:50:21;;;;;;;16.40;4.47;;;;;;;-147.16;34.72;77396.25;4270773;28;20709;-62
2023/03/17 10:52:56;;;;;;;12.70;4.43;;;;;;;-147.16;34.06;77369.91;4264284;28;20237;-63
2023/03/17 10:55:28;;;;;;;8.57;3.93;;;;;;;-147.16;34.20;77386.13;4266418;28;20247;-66
2023/03/17 10:58:15;;;;;;;13.13;4.93;;;;;;;-147.16;34.08;77384.09;4289352;28;20238;-62
2023/03/17 11:00:57;;;;;;;16.23;4.77;;;;;;;-147.16;34.07;77359.78;4269195;28;20262;-64
2023/03/17 11:03:27;;;;;;;12.10;4.53;;;;;;;-147.16;33.41;77335.50;4274210;28;20240;-64
2023/03/17 11:05:55;;;;;;;11.60;4.40;;;;;;;-147.16;33.33;77359.78;4267885;28;20396;-63
2023/03/17 11:08:22;;;;;;;12.23;4.53;;;;;;;-147.16;34.06;77384.09;4258913;28;20614;-62
2023/03/17 11:10:55;;;;;;;17.13;5.37;;;;;;;-147.16;34.63;77396.25;4288169;28;20348;-63
2023/03/17 11:13:27;;;;;;;13.77;5.27;;;;;;;-147.16;34.59;77392.19;4265191;28;21665;-62
2023/03/17 11:16:21;;;;;;;15.53;5.33;;;;;;;-147.16;34.50;77347.66;4257706;28;21199;-62
2023/03/17 11:18:53;;;;;;;14.43;4.03;;;;;;;-147.16;33.39;77319.28;4278934;28;20226;-62
2023/03/17 11:21:51;;;;;;;10.03;4.10;;;;;;;-147.16;33.28;77315.25;4248599;28;22309;-63
2023/03/17 11:24:21;;;;;;;13.50;4.10;;;;;;;-147.16;33.02;77335.50;4269613;28;20230;-63
2023/03/17 11:26:58;;;;;;;10.07;4.33;;;;;;;-147.16;32.70;77343.59;4278568;28;20359;-62
2023/03/17 11:29:56;;;;;;;7.17;3.70;;;;;;;-147.16;32.87;77313.22;4256229;28;20241;-63
2023/03/17 11:32:43;;;;;;;17.10;4.10;;;;;;;-147.16;32.89;77297.03;4267898;28;20516;-64
2023/03/17 11:35:13;;;;;;;15.63;4.83;;;;;;;-147.16;32.49;77274.75;4260812;28;20237;-61
2023/03/17 11:37:47;;;;;;;15.17;4.00;;;;;;;-147.16;32.59;77315.25;4280288;28;20288;-63
2023/03/17 11:40:19;;;;;;;11.70;3.60;;;;;;;-147.16;33.17;77351.69;4253702;28;23517;-63
2023/03/17 11:42:58;;;;;;;11.67;3.63;;;;;;;-147.16;32.56;77341.56;4242291;28;20413;-64
2023/03/17 11:46:18;;;;;;;8.87;3.57;;;;;;;-147.16;32.77;77327.41;4276259;28;21757;-64
2023/03/17 11:49:23;;;;;;;13.77;3.90;;;;;;;-147.16;32.77;77317.28;4227830;28;22488;-64
2023/03/17 11:51:58;;;;;;;16.67;3.93;;;;;;;-147.16;32.53;77323.34;4208020;28;22111;-64
2023/03/17 11:54:40;;;;;;;13.00;4.27;;;;;;;-147.16;32.44;77317.28;4264345;28;20236;-64
2023/03/17 11:57:31;;;;;;;13.23;4.43;;;;;;;-147.16;33.01;77327.41;4302492;28;20242;-63
2023/03/17 12:00:05;;;;;;;15.27;4.33;;;;;;;-147.16;33.70;77286.91;4330993;28;20234;-66
2023/03/17 12:02:38;;;;;;;17.87;5.13;;;;;;;-147.16;32.73;77270.69;4292525;28;22789;-64
2023/03/17 12:05:08;;;;;;;11.20;4.50;;;;;;;-147.16;32.47;77274.75;4285364;28;20911;-61
2023/03/17 12:07:41;;;;;;;16.70;5.00;;;;;;;-147.16;32.47;77266.66;4284229;28;20590;-64
2023/03/17 12:10:21;;;;;;;10.93;3.83;;;;;;;-147.16;32.54;77266.66;4313732;28;20607;-63
2023/03/17 12:13:25;;;;;;;19.83;5.07;;;;;;;-147.16;33.40;77256.53;4276953;28;23141;-61
2023/03/17 12:15:56;;;;;;;14.17;5.03;;;;;;;-147.16;33.46;77264.63;4250848;28;20313;-63
2023/03/17 12:18:38;;;;;;;15.43;5.23;;;;;;;-147.16;33.69;77278.81;4260865;28;20288;-62
2023/03/17 12:21:10;;;;;;;10.60;4.60;;;;;;;-147.16;33.20;77276.78;4274947;28;20296;-63
2023/03/17 12:24:03;;;;;;;12.33;4.97;;;;;;;-147.16;33.45;77292.97;4249041;28;21625;-63
2023/03/17 12:26:34;;;;;;;14.23;5.23;;;;;;;-147.16;33.64;77286.91;4251895;28;21780;-61
2023/03/17 12:29:14;;;;;;;11.53;4.73;;;;;;;-147.16;32.44;77288.91;4276468;28;20283;-63
2023/03/17 12:31:45;;;;;;;11.33;4.03;;;;;;;-147.16;33.01;77288.91;4269694;28;20227;-62
2023/03/17 12:34:19;;;;;;;14.43;5.10;;;;;;;-147.16;32.95;77288.91;4257695;28;21756;-64
2023/03/17 12:36:47;;;;;;;13.33;4.40;;;;;;;-147.16;33.06;77299.03;4276893;28;20256;-65
2023/03/17 12:39:20;;;;;;;13.23;4.27;;;;;;;-147.16;33.12;77311.19;4273588;28;20297;-65
2023/03/17 12:42:00;;;;;;;13.83;4.63;;;;;;;-147.16;32.78;77305.13;4247291;28;20235;-60
2023/03/17 12:45:18;;;;;;;12.50;4.63;;;;;;;-147.16;32.75;77290.94;4271742;28;20234;-64
2023/03/17 12:48:41;;;;;;;13.63;4.63;;;;;;;-147.16;33.18;77290.94;4230015;28;22469;-63
2023/03/17 12:51:23;;;;;;;17.33;5.47;;;;;;;-147.16;34.41;77284.88;4263116;28;20242;-65
2023/03/17 12:53:51;;;;;;;16.10;6.23;;;;;;;-147.16;34.23;77262.59;4266041;28;22249;-62
2023/03/17 12:56:29;;;;;;;19.87;6.50;;;;;;;-147.16;33.81;77256.53;4269460;28;20459;-64
2023/03/17 12:59:05;;;;;;;18.07;7.50;;;;;;;-147.16;33.72;77242.34;4272784;28;21523;-62
2023/03/17 13:01:39;;;;;;;15.73;6.50;;;;;;;-147.16;34.06;77264.63;4249281;28;20238;-65
2023/03/17 13:04:11;;;;;;;12.40;5.27;;;;;;;-147.16;33.75;77246.41;4256343;28;23782;-62
2023/03/17 13:06:43;;;;;;;14.30;4.60;;;;;;;-147.16;33.47;77268.69;4259992;28;20228;-62
2023/03/17 13:09:37;;;;;;;15.33;5.13;;;;;;;-147.16;33.38;77270.69;4258721;28;20626;-64
2023/03/17 13:12:05;;;;;;;12.10;5.17;;;;;;;-147.16;33.36;77270.69;4267751;28;20349;-65
2023/03/17 13:14:43;;;;;;;20.13;5.20;;;;;;;-147.16;33.31;77250.44;4254720;28;20243;-65
2023/03/17 13:17:16;;;;;;;15.07;5.47;;;;;;;-147.16;33.67;77226.16;4281967;28;20932;-64
2023/03/17 13:20:10;;;;;;;10.47;4.70;;;;;;;-147.16;32.86;77218.06;4257782;28;22481;-68
2023/03/17 13:22:39;;;;;;;10.07;4.30;;;;;;;-147.16;32.72;77234.25;4264725;28;21329;-66
2023/03/17 13:25:34;;;;;;;9.50;3.70;;;;;;;-147.16;32.63;77232.22;4275457;28;20243;-65
2023/03/17 13:28:12;;;;;;;11.87;3.93;;;;;;;-147.16;32.08;77258.56;4262001;28;26378;-65
2023/03/17 13:30:39;;;;;;;11.37;3.77;;;;;;;-147.16;32.29;77266.66;4260316;28;20234;-64
2023/03/17 13:33:08;;;;;;;9.93;3.73;;;;;;;-147.16;32.30;77260.56;4272248;28;22880;-65
2023/03/17 13:35:40;;;;;;;12.23;3.77;;;;;;;-147.16;32.31;77260.56;4251072;28;21503;-64
2023/03/17 13:38:25;;;;;;;12.30;4.20;;;;;;;-147.16;32.13;77260.56;4257525;28;20983;-65
2023/03/17 13:41:21;;;;;;;11.90;3.80;;;;;;;-147.16;31.81;77268.69;4257507;28;20234;-65
2023/03/17 13:44:14;;;;;;;9.07;4.13;;;;;;;-147.16;32.09;77278.81;4252305;28;20341;-64
2023/03/17 13:46:47;;;;;;;14.27;4.20;;;;;;;-147.16;32.23;77270.69;4274979;28;20254;-64
2023/03/17 13:49:21;;;;;;;8.73;4.10;;;;;;;-147.16;32.25;77272.72;4271473;28;20282;-65
2023/03/17 13:51:57;;;;;;;14.97;5.03;;;;;;;-147.16;31.94;77256.53;4251087;28;22017;-64
2023/03/17 13:54:26;;;;;;;13.57;4.80;;;;;;;-147.16;32.07;77238.31;4254137;28;21892;-64
2023/03/17 13:56:55;;;;;;;15.23;4.47;;;;;;;-147.16;31.73;77234.25;4269672;28;20244;-62
2023/03/17 14:00:00;;;;;;;12.60;5.03;;;;;;;-147.16;31.50;77232.22;4239551;28;20302;-63
2023/03/17 14:02:32;;;;;;;11.80;4.40;;;;;;;-147.16;31.63;77224.13;4267957;28;20524;-64
2023/03/17 14:05:03;;;;;;;15.07;4.70;;;;;;;-147.16;31.52;77244.38;4286025;28;22188;-63
2023/03/17 14:07:37;;;;;;;17.03;4.63;;;;;;;-147.16;31.26;77254.50;4277070;28;20233;-66
2023/03/17 14:10:04;;;;;;;14.53;5.07;;;;;;;-147.16;31.56;77258.56;4282047;27;20397;-68
2023/03/17 14:12:38;;;;;;;12.70;4.70;;;;;;;-147.16;31.58;77260.56;4280269;28;20239;-67
2023/03/17 14:15:14;;;;;;;11.53;4.57;;;;;;;-147.16;31.83;77234.25;4283532;28;20742;-65
2023/03/17 14:17:49;;;;;;;15.83;4.57;;;;;;;-147.16;31.68;77220.06;4275956;28;20300;-64
2023/03/17 14:20:15;;;;;;;12.30;4.40;;;;;;;-147.16;31.26;77187.69;4258813;28;20237;-65
2023/03/17 14:22:44;;;;;;;12.03;5.03;;;;;;;-147.16;31.28;77183.63;4283276;28;20424;-63
2023/03/17 14:25:17;;;;;;;14.37;4.43;;;;;;;-147.16;31.52;77165.41;4284288;28;20249;-66
2023/03/17 14:27:47;;;;;;;13.30;4.93;;;;;;;-147.16;31.28;77161.38;4274973;28;20233;-64
2023/03/17 14:30:33;;;;;;;16.80;4.93;;;;;;;-147.16;31.14;77181.59;4271422;28;20233;-64
2023/03/17 14:33:03;;;;;;;15.17;4.67;;;;;;;-147.16;31.31;77177.56;4305902;28;21629;-65
2023/03/17 14:35:37;;;;;;;18.13;5.37;;;;;;;-147.16;31.74;77165.41;4287489;28;20248;-66
2023/03/17 14:38:20;;;;;;;12.57;5.40;;;;;;;-147.16;31.57;77169.47;4281488;28;20729;-65
2023/03/17 14:40:48;;;;;;;17.80;5.40;;;;;;;-147.16;31.85;77167.44;4256880;28;21141;-66
2023/03/17 14:43:15;;;;;;;17.63;5.90;;;;;;;-147.16;32.68;77173.50;4275084;28;20241;-70
2023/03/17 14:45:47;;;;;;;13.97;6.17;;;;;;;-147.16;32.99;77181.59;4265903;28;20678;-65
2023/03/17 14:48:17;;;;;;;18.33;6.80;;;;;;;-147.16;32.56;77177.56;4263492;28;21087;-64
2023/03/17 14:51:19;;;;;;;14.53;5.73;;;;;;;-147.16;32.18;77214.00;4267695;28;20225;-64
2023/03/17 14:53:47;;;;;;;18.53;5.90;;;;;;;-147.16;32.33;77234.25;4276590;28;20268;-65
2023/03/17 14:56:14;;;;;;;14.77;6.00;;;;;;;-147.16;32.57;77246.41;4269734;28;20236;-64
2023/03/17 14:58:42;;;;;;;13.53;5.80;;;;;;;-147.16;32.75;77238.31;4266203;28;23989;-63
2023/03/17 15:01:38;;;;;;;18.77;6.73;;;;;;;-147.16;33.36;77238.31;4275352;28;21955;-63
2023/03/17 15:04:05;;;;;;;19.37;6.60;;;;;;;-147.16;33.30;77232.22;4277922;28;20911;-64
2023/03/17 15:06:35;;;;;;;16.40;6.03;;;;;;;-147.16;33.23;77218.06;4273378;28;20301;-68
2023/03/17 15:09:16;;;;;;;16.37;6.90;;;;;;;-147.16;33.65;77226.16;4273953;28;20365;-64
2023/03/17 15:11:43;;;;;;;18.13;6.50;;;;;;;-147.16;33.26;77201.84;4278163;28;20230;-65
2023/03/17 15:14:34;;;;;;;19.37;7.17;;;;;;;-147.16;32.93;77193.75;4263375;28;20456;-63
2023/03/17 15:17:03;;;;;;;21.80;7.53;;;;;;;-147.16;33.10;77191.72;4274207;28;20310;-65
2023/03/17 15:19:48;;;;;;;20.20;7.70;;;;;;;-147.16;32.68;77205.91;4271220;28;21691;-64
2023/03/17 15:22:24;;;;;;;18.93;7.87;;;;;;;-147.16;33.05;77216.03;4269396;28;20233;-63
2023/03/17 15:25:00;;;;;;;22.27;7.87;;;;;;;-147.16;33.39;77209.97;4265135;28;21693;-66
2023/03/17 15:27:28;;;;;;;19.07;7.87;;;;;;;-147.16;33.28;77197.81;4275074;28;21752;-68
2023/03/17 15:29:55;;;;;;;23.43;9.00;;;;;;;-147.16;33.52;77185.66;4269027;28;20754;-67
2023/03/17 15:32:24;;;;;;;19.23;7.90;;;;;;;-147.16;33.36;77195.78;4274643;28;20287;-66
2023/03/17 15:34:53;;;;;;;16.13;6.93;;;;;;;-147.16;33.41;77197.81;4275764;28;20403;-65
2023/03/17 15:37:25;;;;;;;23.60;7.20;;;;;;;-147.16;33.95;77203.88;4281749;28;20331;-66
2023/03/17 15:39:54;;;;;;;21.37;6.53;;;;;;;-147.16;33.55;77207.94;4277879;28;20298;-65
2023/03/17 15:42:24;;;;;;;19.23;7.50;;;;;;;-147.16;33.88;77222.09;4272325;28;21182;-62
2023/03/17 15:44:51;;;;;;;23.93;6.53;;;;;;;-147.16;33.78;77242.34;4283163;28;21109;-63
2023/03/17 15:47:19;;;;;;;17.83;6.90;;;;;;;-147.16;33.85;77262.59;4258576;28;20246;-65
2023/03/17 15:49:48;;;;;;;17.27;6.33;;;;;;;-147.16;34.11;77258.56;4270582;28;22148;-63
2023/03/17 15:52:26;;;;;;;18.63;6.37;;;;;;;-147.16;34.11;77282.84;4270848;28;20245;-65
2023/03/17 15:54:55;;;;;;;20.47;5.90;;;;;;;-147.16;33.94;77295.00;4257053;28;20394;-66
2023/03/17 15:57:21;;;;;;;18.87;7.00;;;;;;;-147.16;34.15;77295.00;4269355;28;20421;-67
2023/03/17 15:59:48;;;;;;;20.03;7.00;;;;;;;-147.16;34.21;77297.03;4263967;28;21484;-71
2023/03/17 16:02:26;;;;;;;16.97;7.37;;;;;;;-147.16;34.37;77303.09;4276908;28;20917;-68
2023/03/17 16:04:53;;;;;;;17.43;7.07;;;;;;;-147.16;34.54;77315.25;4271257;28;23422;-70
2023/03/17 16:07:21;;;;;;;15.87;6.60;;;;;;;-147.16;34.43;77311.19;4264794;28;21449;-68
2023/03/17 16:09:47;;;;;;;18.80;6.17;;;;;;;-147.16;34.12;77323.34;4263762;28;20829;-64
2023/03/17 16:12:14;;;;;;;17.60;5.70;;;;;;;-147.16;34.33;77331.44;4275299;28;20225;-66
2023/03/17 16:14:41;;;;;;;19.63;6.13;;;;;;;-147.16;34.19;77327.41;4251213;28;20249;-70
2023/03/17 16:17:27;;;;;;;14.90;6.50;;;;;;;-147.16;34.79;77343.59;4277768;28;21545;-67